Time;durP1;ratioP1;P1;durP2;ratioP2;P2;SDS_P1;SDS_P2;PMS_P1;PMS_P2;Temp;Humidity;BMP_temperature;BMP_pressure;BME280_temperature;BME280_humidity;BME280_pressure;Samples;Min_cycle;Max_cycle;Signal;HPM_P1;HPM_P2
2023/07/13 00:03:37;;;;;;;11.98;4.25;;;;;;;;;;10503626;28;20016;-72
2023/07/13 00:08:37;;;;;;;6.15;3.85;;;;;;;;;;10503966;28;20190;-73
2023/07/13 00:13:39;;;;;;;9.20;4.67;;;;;;;;;;10503129;28;20016;-74
2023/07/13 00:18:39;;;;;;;7.25;3.85;;;;;;;;;;10503631;28;20384;-74
2023/07/13 00:23:40;;;;;;;7.47;3.97;;;;;;;;;;10502401;28;20218;-75
2023/07/13 00:28:41;;;;;;;7.43;4.22;;;;;;;;;;10501976;28;20087;-74
2023/07/13 00:33:42;;;;;;;7.90;3.70;;;;;;;;;;10502159;28;20016;-74
2023/07/13 00:38:42;;;;;;;5.47;4.30;;;;;;;;;;10501694;28;20315;-74
2023/07/13 00:43:42;;;;;;;7.07;4.38;;;;;;;;;;10501886;28;20012;-74
2023/07/13 00:48:44;;;;;;;9.00;5.10;;;;;;;;;;10501704;28;20024;-73
2023/07/13 00:53:44;;;;;;;8.00;4.50;;;;;;;;;;10501722;28;20047;-73
2023/07/13 00:58:45;;;;;;;6.33;4.40;;;;;;;;;;10500522;28;20021;-73
2023/07/13 01:03:51;;;;;;;6.68;4.47;;;;;;;;;;10501618;28;20360;-73
2023/07/13 01:08:51;;;;;;;7.75;4.63;;;;;;;;;;10501190;28;20329;-73
2023/07/13 01:14:07;;;;;;;9.60;5.15;;;;;;;;;;10500911;28;20020;-73
2023/07/13 01:19:14;;;;;;;9.75;4.78;;;;;;;;;;10500452;28;20047;-74
2023/07/13 01:24:14;;;;;;;6.60;4.82;;;;;;;;;;10500501;28;20017;-74
2023/07/13 01:29:14;;;;;;;8.77;4.80;;;;;;;;;;10500536;28;20021;-75
2023/07/13 01:34:15;;;;;;;7.83;4.40;;;;;;;;;;10500521;28;20608;-74
2023/07/13 01:39:16;;;;;;;9.30;4.18;;;;;;;;;;10499091;28;20020;-74
2023/07/13 01:44:17;;;;;;;6.40;4.47;;;;;;;;;;10499063;28;20095;-74
2023/07/13 01:49:17;;;;;;;7.10;4.53;;;;;;;;;;10500535;28;20520;-73
2023/07/13 01:54:17;;;;;;;9.50;4.72;;;;;;;;;;10499475;28;20048;-74
2023/07/13 01:59:17;;;;;;;7.85;4.40;;;;;;;;;;10499795;28;20088;-73
2023/07/13 02:04:18;;;;;;;7.78;4.82;;;;;;;;;;10499638;28;20172;-74
2023/07/13 02:09:18;;;;;;;8.20;5.45;;;;;;;;;;10499201;28;20032;-74
2023/07/13 02:14:18;;;;;;;7.55;5.30;;;;;;;;;;10499454;28;20028;-74
2023/07/13 02:19:18;;;;;;;10.05;4.38;;;;;;;;;;10499301;28;20036;-73
2023/07/13 02:24:20;;;;;;;6.82;5.07;;;;;;;;;;10499199;28;20033;-74
2023/07/13 02:29:21;;;;;;;6.22;4.68;;;;;;;;;;10499100;28;20071;-73
2023/07/13 02:34:21;;;;;;;8.30;5.35;;;;;;;;;;10499434;28;20247;-73
2023/07/13 02:39:21;;;;;;;7.68;4.60;;;;;;;;;;10499210;28;20037;-73
2023/07/13 02:44:21;;;;;;;6.90;4.85;;;;;;;;;;10498527;28;20192;-73
2023/07/13 02:49:22;;;;;;;8.23;4.77;;;;;;;;;;10500432;28;20353;-74
2023/07/13 02:54:22;;;;;;;7.55;4.65;;;;;;;;;;10506143;28;20138;-74
2023/07/13 02:59:22;;;;;;;8.70;5.03;;;;;;;;;;10506076;28;20047;-75
2023/07/13 03:04:23;;;;;;;7.43;4.75;;;;;;;;;;10505674;28;20016;-74
2023/07/13 03:09:23;;;;;;;7.90;4.87;;;;;;;;;;10504180;28;20020;-74
2023/07/13 03:14:24;;;;;;;12.43;5.75;;;;;;;;;;10505307;28;20025;-74
2023/07/13 03:19:24;;;;;;;10.60;5.13;;;;;;;;;;10506146;28;20259;-73
2023/07/13 03:24:25;;;;;;;10.65;5.45;;;;;;;;;;10505043;28;20248;-74
2023/07/13 03:29:25;;;;;;;9.13;5.63;;;;;;;;;;10503630;28;20401;-74
2023/07/13 03:34:26;;;;;;;9.73;6.05;;;;;;;;;;10504440;28;20083;-74
2023/07/13 03:39:26;;;;;;;11.97;6.17;;;;;;;;;;10504477;28;20319;-75
2023/07/13 03:44:26;;;;;;;10.60;6.83;;;;;;;;;;10504249;28;20115;-75
2023/07/13 03:49:27;;;;;;;7.73;5.27;;;;;;;;;;10503687;28;20019;-75
2023/07/13 03:54:39;;;;;;;12.27;5.47;;;;;;;;;;10504105;28;20097;-75
2023/07/13 03:59:39;;;;;;;11.73;5.35;;;;;;;;;;10503820;28;20023;-75
2023/07/13 04:04:40;;;;;;;9.88;5.78;;;;;;;;;;10502422;28;20291;-76
2023/07/13 04:09:40;;;;;;;11.43;5.47;;;;;;;;;;10503168;28;20037;-75
2023/07/13 04:14:41;;;;;;;16.70;7.67;;;;;;;;;;10501362;28;20245;-73
2023/07/13 04:19:41;;;;;;;13.88;5.55;;;;;;;;;;10502993;28;20083;-74
2023/07/13 04:24:41;;;;;;;13.35;6.43;;;;;;;;;;10502887;28;20032;-73
2023/07/13 04:29:42;;;;;;;11.90;6.10;;;;;;;;;;10502155;28;20193;-73
2023/07/13 04:34:42;;;;;;;10.47;6.30;;;;;;;;;;10502339;28;20051;-73
2023/07/13 04:39:42;;;;;;;12.68;7.25;;;;;;;;;;10501753;28;20096;-74
2023/07/13 04:44:47;;;;;;;13.90;6.13;;;;;;;;;;10502569;28;20024;-73
2023/07/13 04:49:47;;;;;;;14.98;6.72;;;;;;;;;;10501429;28;20023;-74
2023/07/13 04:54:47;;;;;;;12.10;5.57;;;;;;;;;;10501636;28;20409;-74
2023/07/13 04:59:48;;;;;;;13.02;5.75;;;;;;;;;;10500754;28;20028;-74
2023/07/13 05:04:48;;;;;;;10.93;5.85;;;;;;;;;;10500728;28;20023;-74
2023/07/13 05:09:49;;;;;;;10.68;5.78;;;;;;;;;;10500562;28;20040;-74
2023/07/13 05:14:49;;;;;;;10.32;5.47;;;;;;;;;;10500334;28;20024;-73
2023/07/13 05:19:49;;;;;;;9.83;5.83;;;;;;;;;;10501140;28;20199;-74
2023/07/13 05:24:49;;;;;;;8.75;5.57;;;;;;;;;;10500747;28;20086;-74
2023/07/13 05:29:50;;;;;;;10.48;5.28;;;;;;;;;;10499991;28;20032;-73
2023/07/13 05:34:50;;;;;;;10.98;5.32;;;;;;;;;;10499567;28;20108;-74
2023/07/13 05:39:50;;;;;;;8.50;5.20;;;;;;;;;;10499947;28;20020;-74
2023/07/13 05:44:50;;;;;;;20.90;5.50;;;;;;;;;;10500091;28;20029;-74
2023/07/13 05:49:51;;;;;;;9.10;5.40;;;;;;;;;;10498730;28;20090;-74
2023/07/13 05:54:51;;;;;;;12.20;5.17;;;;;;;;;;10500624;28;20104;-74
2023/07/13 05:59:51;;;;;;;7.15;5.25;;;;;;;;;;10499930;28;20021;-74
2023/07/13 06:04:52;;;;;;;12.30;5.40;;;;;;;;;;10499570;28;20055;-74
2023/07/13 06:09:52;;;;;;;14.00;6.10;;;;;;;;;;10499761;28;20028;-74
2023/07/13 06:14:52;;;;;;;10.90;5.27;;;;;;;;;;10499892;28;20291;-73
2023/07/13 06:19:52;;;;;;;12.05;5.18;;;;;;;;;;10499374;28;20032;-73
2023/07/13 06:24:53;;;;;;;12.50;5.80;;;;;;;;;;10501878;28;20253;-74
2023/07/13 06:29:53;;;;;;;9.47;5.07;;;;;;;;;;10507172;28;20031;-74
2023/07/13 06:34:53;;;;;;;10.65;4.82;;;;;;;;;;10506963;28;20343;-74
2023/07/13 06:39:53;;;;;;;11.57;5.00;;;;;;;;;;10506812;28;20063;-74
2023/07/13 06:44:54;;;;;;;10.13;4.82;;;;;;;;;;10507268;28;20047;-74
2023/07/13 06:49:54;;;;;;;14.73;5.72;;;;;;;;;;10506276;28;20084;-73
2023/07/13 06:54:54;;;;;;;12.80;4.77;;;;;;;;;;10505726;28;20318;-73
2023/07/13 06:59:54;;;;;;;10.93;5.45;;;;;;;;;;10505962;28;20024;-73
2023/07/13 07:04:55;;;;;;;10.75;4.80;;;;;;;;;;10505851;28;20020;-73
2023/07/13 07:09:55;;;;;;;8.80;4.23;;;;;;;;;;10505807;28;20440;-73
2023/07/13 07:14:55;;;;;;;9.95;5.00;;;;;;;;;;10505336;28;20082;-73
2023/07/13 07:19:55;;;;;;;19.85;5.13;;;;;;;;;;10505134;28;20306;-73
2023/07/13 07:24:56;;;;;;;14.35;4.88;;;;;;;;;;10505245;28;20016;-72
2023/07/13 07:29:57;;;;;;;20.42;5.50;;;;;;;;;;10503528;28;20031;-73
2023/07/13 07:34:58;;;;;;;16.27;5.00;;;;;;;;;;10503856;28;20029;-74
2023/07/13 07:39:59;;;;;;;16.95;5.22;;;;;;;;;;10504036;28;20024;-74
2023/07/13 07:45:00;;;;;;;9.07;4.95;;;;;;;;;;10504497;28;20180;-74
2023/07/13 07:50:00;;;;;;;10.85;4.85;;;;;;;;;;10504428;28;20047;-73
2023/07/13 07:55:01;;;;;;;16.65;4.78;;;;;;;;;;10503669;28;20044;-74
2023/07/13 08:00:01;;;;;;;10.03;4.10;;;;;;;;;;10503708;28;20310;-74
2023/07/13 08:05:01;;;;;;;10.43;4.10;;;;;;;;;;10503545;28;20073;-74
2023/07/13 08:10:02;;;;;;;12.77;4.22;;;;;;;;;;10503436;28;20290;-74
2023/07/13 08:15:02;;;;;;;6.70;3.97;;;;;;;;;;10502857;28;20020;-74
2023/07/13 08:20:03;;;;;;;10.83;4.40;;;;;;;;;;10503070;28;20020;-74
2023/07/13 08:25:04;;;;;;;11.80;4.20;;;;;;;;;;10505331;28;20015;-74
2023/07/13 08:30:05;;;;;;;11.07;5.17;;;;;;;;;;10502427;28;20028;-74
2023/07/13 08:35:06;;;;;;;8.00;4.00;;;;;;;;;;10501596;28;20326;-74
2023/07/13 08:40:08;;;;;;;9.27;3.70;;;;;;;;;;10501979;28;20017;-74
2023/07/13 08:45:21;;;;;;;6.00;3.72;;;;;;;;;;10507202;28;20028;-74
2023/07/13 08:50:24;;;;;;;5.25;3.50;;;;;;;;;;10501511;28;20515;-74
2023/07/13 08:55:28;;;;;;;9.93;4.05;;;;;;;;;;10499766;28;20041;-74
2023/07/13 09:00:34;;;;;;;5.18;3.45;;;;;;;;;;10504283;28;20042;-74
2023/07/13 09:05:41;;;;;;;14.55;3.80;;;;;;;;;;10501318;28;20245;-74
2023/07/13 09:10:46;;;;;;;8.27;3.92;;;;;;;;;;10500949;28;20345;-74
2023/07/13 09:15:47;;;;;;;11.15;3.35;;;;;;;;;;10501783;28;20025;-73
2023/07/13 09:20:54;;;;;;;10.20;4.25;;;;;;;;;;10500766;28;20038;-74
2023/07/13 09:25:58;;;;;;;11.20;3.83;;;;;;;;;;10499366;28;20035;-74
2023/07/13 09:30:59;;;;;;;7.95;3.50;;;;;;;;;;10499722;28;20456;-72
2023/07/13 09:35:59;;;;;;;12.43;3.63;;;;;;;;;;10500205;28;20017;-74
2023/07/13 09:40:59;;;;;;;6.18;3.67;;;;;;;;;;10500268;28;20024;-73
2023/07/13 09:46:00;;;;;;;6.25;3.58;;;;;;;;;;10498699;28;20538;-73
2023/07/13 09:51:06;;;;;;;10.13;3.90;;;;;;;;;;10499554;28;20021;-73
2023/07/13 09:56:18;;;;;;;8.70;3.80;;;;;;;;;;10498575;28;20072;-73
2023/07/13 10:01:38;;;;;;;7.47;4.20;;;;;;;;;;10503459;28;20320;-73
2023/07/13 10:06:43;;;;;;;8.77;3.90;;;;;;;;;;10507554;28;20436;-74
2023/07/13 10:11:44;;;;;;;10.00;3.35;;;;;;;;;;10507703;28;20016;-73
2023/07/13 10:16:45;;;;;;;18.90;4.63;;;;;;;;;;10507143;28;20160;-73
2023/07/13 10:21:56;;;;;;;7.72;3.95;;;;;;;;;;10507037;28;20079;-74
2023/07/13 10:27:00;;;;;;;7.85;3.63;;;;;;;;;;10505929;28;20044;-73
2023/07/13 10:32:00;;;;;;;9.00;3.42;;;;;;;;;;10506870;28;20017;-73
2023/07/13 10:37:01;;;;;;;15.00;4.10;;;;;;;;;;10506796;28;20303;-73
2023/07/13 10:42:06;;;;;;;12.57;4.03;;;;;;;;;;10506636;28;20040;-74
2023/07/13 10:47:15;;;;;;;10.15;3.15;;;;;;;;;;10505138;28;20048;-74
2023/07/13 10:52:36;;;;;;;5.63;3.25;;;;;;;;;;10505929;28;20346;-74
2023/07/13 10:57:42;;;;;;;18.42;3.45;;;;;;;;;;10504831;28;20028;-73
2023/07/13 11:02:42;;;;;;;8.13;3.53;;;;;;;;;;10505925;28;20092;-73
2023/07/13 11:07:55;;;;;;;11.52;3.65;;;;;;;;;;10504674;28;20023;-74
2023/07/13 11:12:55;;;;;;;13.73;3.47;;;;;;;;;;10504839;28;20348;-73
2023/07/13 11:18:00;;;;;;;9.25;3.90;;;;;;;;;;10505411;28;20091;-73
2023/07/13 11:23:08;;;;;;;8.03;4.57;;;;;;;;;;10503562;28;20025;-73
2023/07/13 11:28:12;;;;;;;13.35;5.60;;;;;;;;;;10504914;28;20304;-73
2023/07/13 11:33:20;;;;;;;15.32;5.40;;;;;;;;;;10504581;28;20229;-73
2023/07/13 11:38:27;;;;;;;10.23;5.85;;;;;;;;;;10504369;28;20028;-73
2023/07/13 11:43:27;;;;;;;13.98;5.35;;;;;;;;;;10504558;28;20047;-74
2023/07/13 11:48:28;;;;;;;18.52;6.07;;;;;;;;;;10504215;28;20009;-74
2023/07/13 11:53:31;;;;;;;9.95;5.53;;;;;;;;;;10502318;28;20047;-74
2023/07/13 11:58:31;;;;;;;10.70;4.95;;;;;;;;;;10503864;28;20016;-74
2023/07/13 12:03:33;;;;;;;8.93;4.75;;;;;;;;;;10503759;28;20258;-74
2023/07/13 12:08:40;;;;;;;10.45;5.25;;;;;;;;;;10503805;28;20082;-74
2023/07/13 12:13:40;;;;;;;14.45;5.32;;;;;;;;;;10507828;28;20031;-74
2023/07/13 12:18:44;;;;;;;25.33;5.88;;;;;;;;;;10502151;28;20035;-74
2023/07/13 12:23:46;;;;;;;14.68;5.00;;;;;;;;;;10501811;28;20222;-74
2023/07/13 12:28:48;;;;;;;9.73;4.10;;;;;;;;;;10511431;28;20339;-74
2023/07/13 12:33:55;;;;;;;9.02;4.75;;;;;;;;;;10502064;28;20023;-74
2023/07/13 12:38:56;;;;;;;8.10;4.38;;;;;;;;;;10501959;28;20538;-73
2023/07/13 12:43:57;;;;;;;12.57;4.97;;;;;;;;;;10501565;28;20058;-73
2023/07/13 12:48:58;;;;;;;13.38;5.13;;;;;;;;;;10500251;28;20299;-73
2023/07/13 12:54:06;;;;;;;12.13;4.88;;;;;;;;;;10500510;28;20056;-73
2023/07/13 12:59:11;;;;;;;22.33;5.75;;;;;;;;;;10501044;28;20032;-73
2023/07/13 13:04:12;;;;;;;15.68;5.22;;;;;;;;;;10500669;28;20333;-74
2023/07/13 13:09:14;;;;;;;13.60;4.70;;;;;;;;;;10500870;28;20020;-74
2023/07/13 13:14:14;;;;;;;12.52;5.00;;;;;;;;;;10499495;28;20043;-74
2023/07/13 13:19:16;;;;;;;11.77;4.78;;;;;;;;;;10500004;28;20056;-74
2023/07/13 13:24:18;;;;;;;13.60;5.07;;;;;;;;;;10500815;28;20079;-74
2023/07/13 13:29:19;;;;;;;9.75;4.60;;;;;;;;;;10500529;28;20432;-72
2023/07/13 13:34:23;;;;;;;15.27;4.63;;;;;;;;;;10499703;28;20020;-74
2023/07/13 13:39:24;;;;;;;16.90;4.95;;;;;;;;;;10499858;28;20287;-73
2023/07/13 13:44:25;;;;;;;15.75;4.80;;;;;;;;;;10498356;28;20019;-73
2023/07/13 13:49:26;;;;;;;13.00;4.85;;;;;;;;;;10499692;28;20017;-74
2023/07/13 13:54:26;;;;;;;15.63;4.82;;;;;;;;;;10498555;28;20063;-74
2023/07/13 13:59:27;;;;;;;13.20;4.90;;;;;;;;;;10499918;28;20459;-73
2023/07/13 14:04:27;;;;;;;10.23;4.37;;;;;;;;;;10499636;28;20268;-74
2023/07/13 14:09:27;;;;;;;10.85;4.90;;;;;;;;;;10497984;28;20078;-74
2023/07/13 14:14:28;;;;;;;9.63;4.20;;;;;;;;;;10499421;28;20500;-74
2023/07/13 14:19:28;;;;;;;13.60;4.90;;;;;;;;;;10499096;28;20028;-74
2023/07/13 14:24:29;;;;;;;18.00;5.25;;;;;;;;;;10498942;28;20012;-74
2023/07/13 14:29:32;;;;;;;8.68;4.72;;;;;;;;;;10499165;28;20219;-74
2023/07/13 14:34:32;;;;;;;16.92;5.75;;;;;;;;;;10498782;28;20047;-72
2023/07/13 14:39:32;;;;;;;13.38;4.80;;;;;;;;;;10497865;28;20302;-73
2023/07/13 14:44:32;;;;;;;12.57;4.97;;;;;;;;;;10498029;28;20024;-74
2023/07/13 14:49:37;;;;;;;17.00;5.47;;;;;;;;;;10505702;28;20099;-74
2023/07/13 14:54:43;;;;;;;20.05;4.80;;;;;;;;;;10506016;28;20192;-74
2023/07/13 14:59:46;;;;;;;11.10;4.97;;;;;;;;;;10505476;28;20084;-74
2023/07/13 15:04:46;;;;;;;8.43;5.00;;;;;;;;;;10505787;28;20012;-74
2023/07/13 15:09:47;;;;;;;11.93;4.90;;;;;;;;;;10505152;28;20717;-74
2023/07/13 15:14:48;;;;;;;13.68;5.05;;;;;;;;;;10505101;28;20090;-75
2023/07/13 15:19:49;;;;;;;12.40;5.00;;;;;;;;;;10504984;28;20307;-74
2023/07/13 15:24:49;;;;;;;13.85;4.60;;;;;;;;;;10504994;28;20024;-74
2023/07/13 15:29:51;;;;;;;14.20;4.50;;;;;;;;;;10504416;28;20024;-74
2023/07/13 15:34:51;;;;;;;11.07;5.10;;;;;;;;;;10504209;28;20112;-73
2023/07/13 15:39:51;;;;;;;9.43;4.72;;;;;;;;;;10504188;28;20494;-74
2023/07/13 15:44:52;;;;;;;12.55;5.10;;;;;;;;;;10503618;28;20016;-74
2023/07/13 15:49:52;;;;;;;13.37;4.80;;;;;;;;;;10503923;28;20172;-73
2023/07/13 15:54:52;;;;;;;15.65;5.10;;;;;;;;;;10503617;28;20212;-72
2023/07/13 15:59:53;;;;;;;10.70;4.50;;;;;;;;;;10501890;28;20029;-74
2023/07/13 16:04:53;;;;;;;20.07;6.20;;;;;;;;;;10503299;28;20061;-74
2023/07/13 16:09:53;;;;;;;11.20;4.25;;;;;;;;;;10503131;28;20043;-72
2023/07/13 16:14:53;;;;;;;8.65;4.30;;;;;;;;;;10502758;28;20052;-73
2023/07/13 16:19:56;;;;;;;10.45;4.25;;;;;;;;;;10501523;28;20039;-72
2023/07/13 16:24:57;;;;;;;13.02;5.10;;;;;;;;;;10502531;28;20040;-72
2023/07/13 16:29:58;;;;;;;15.88;5.15;;;;;;;;;;10502054;28;20016;-75
2023/07/13 16:34:59;;;;;;;10.50;4.40;;;;;;;;;;10502136;28;20023;-74
2023/07/13 16:40:00;;;;;;;8.68;4.18;;;;;;;;;;10501917;28;20191;-73
2023/07/13 16:45:00;;;;;;;9.68;4.53;;;;;;;;;;10500479;28;20083;-74
2023/07/13 16:50:03;;;;;;;15.00;4.70;;;;;;;;;;10501537;28;20017;-73
2023/07/13 16:55:04;;;;;;;9.45;4.30;;;;;;;;;;10500359;28;20330;-73
2023/07/13 17:00:27;;;;;;;20.83;5.25;;;;;;;;;;10499574;28;20066;-73
2023/07/13 17:05:32;;;;;;;13.02;6.43;;;;;;;;;;10499847;28;20021;-72
2023/07/13 17:10:33;;;;;;;12.63;3.70;;;;;;;;;;10500500;28;20051;-74
2023/07/13 17:15:33;;;;;;;8.77;4.07;;;;;;;;;;10500611;28;20016;-73
2023/07/13 17:20:37;;;;;;;12.38;5.80;;;;;;;;;;10499570;28;20111;-74
2023/07/13 17:25:39;;;;;;;16.52;7.75;;;;;;;;;;10498881;28;20370;-73
2023/07/13 17:30:40;;;;;;;12.60;4.95;;;;;;;;;;10514426;28;20321;-72
2023/07/13 17:35:41;;;;;;;16.17;8.30;;;;;;;;;;10500136;28;20179;-73
2023/07/13 17:40:41;;;;;;;11.98;5.38;;;;;;;;;;10499900;28;20083;-74
2023/07/13 17:45:42;;;;;;;18.60;7.35;;;;;;;;;;10500196;28;20040;-73
2023/07/13 17:50:44;;;;;;;21.58;10.60;;;;;;;;;;10498764;28;20024;-74
2023/07/13 17:55:44;;;;;;;17.10;8.25;;;;;;;;;;10498223;28;20380;-74
2023/07/13 18:00:47;;;;;;;16.13;6.85;;;;;;;;;;10499663;28;20210;-74
2023/07/13 18:05:49;;;;;;;16.67;7.03;;;;;;;;;;10499719;28;20017;-72
2023/07/13 18:10:49;;;;;;;13.65;6.45;;;;;;;;;;10499452;28;20029;-74
2023/07/13 18:15:51;;;;;;;18.67;6.93;;;;;;;;;;10499365;28;20074;-74
2023/07/13 18:20:53;;;;;;;18.65;7.00;;;;;;;;;;10501033;28;20032;-72
2023/07/13 18:25:53;;;;;;;17.60;8.75;;;;;;;;;;10507756;28;20012;-74
2023/07/13 18:30:55;;;;;;;22.73;8.93;;;;;;;;;;10507412;28;20310;-73
2023/07/13 18:35:56;;;;;;;20.27;8.25;;;;;;;;;;10515171;28;20187;-73
2023/07/13 18:40:57;;;;;;;15.77;8.30;;;;;;;;;;10505354;28;20032;-73
2023/07/13 18:45:59;;;;;;;16.08;7.05;;;;;;;;;;10505276;28;20356;-73
2023/07/13 18:51:00;;;;;;;25.60;9.27;;;;;;;;;;10506136;28;20033;-73
2023/07/13 18:56:00;;;;;;;24.50;8.27;;;;;;;;;;10506382;28;20158;-74
2023/07/13 19:01:01;;;;;;;21.52;7.05;;;;;;;;;;10505910;28;20028;-73
2023/07/13 19:06:03;;;;;;;16.10;5.60;;;;;;;;;;10505750;28;20516;-75
2023/07/13 19:11:04;;;;;;;11.98;5.32;;;;;;;;;;10504399;28;20214;-73
2023/07/13 19:16:05;;;;;;;18.35;6.30;;;;;;;;;;10504194;28;20025;-73
2023/07/13 19:21:08;;;;;;;20.30;6.53;;;;;;;;;;10505095;28;20032;-75
2023/07/13 19:26:32;;;;;;;17.90;5.45;;;;;;;;;;10505073;28;20040;-74
2023/07/13 19:31:34;;;;;;;23.40;5.72;;;;;;;;;;10496714;28;20041;-73
2023/07/13 19:36:35;;;;;;;17.52;6.38;;;;;;;;;;10504457;28;20278;-73
2023/07/13 19:41:36;;;;;;;13.23;5.70;;;;;;;;;;10503141;28;20031;-74
2023/07/13 19:46:38;;;;;;;16.88;6.65;;;;;;;;;;10504586;28;20090;-74
2023/07/13 19:51:38;;;;;;;12.70;5.85;;;;;;;;;;10502461;28;20016;-72
2023/07/13 19:56:39;;;;;;;21.98;7.22;;;;;;;;;;10502931;28;20062;-74
2023/07/13 20:01:39;;;;;;;14.20;7.22;;;;;;;;;;10502287;28;20059;-72
2023/07/13 20:06:40;;;;;;;17.30;6.17;;;;;;;;;;10503418;28;20066;-73
2023/07/13 20:11:40;;;;;;;16.05;6.13;;;;;;;;;;10503259;28;20016;-73
2023/07/13 20:16:40;;;;;;;11.90;6.18;;;;;;;;;;10502935;28;20023;-74
2023/07/13 20:21:40;;;;;;;16.55;6.50;;;;;;;;;;10502531;28;20196;-73
2023/07/13 20:26:41;;;;;;;11.50;6.13;;;;;;;;;;10502549;28;20054;-73
2023/07/13 20:31:46;;;;;;;13.60;7.28;;;;;;;;;;10501247;28;20104;-74
2023/07/13 20:36:46;;;;;;;12.57;6.13;;;;;;;;;;10502122;28;20028;-75
2023/07/13 20:41:47;;;;;;;17.60;6.28;;;;;;;;;;10502275;28;20024;-74
2023/07/13 20:46:47;;;;;;;23.53;7.67;;;;;;;;;;10501414;28;20043;-73
2023/07/13 20:51:50;;;;;;;13.63;6.13;;;;;;;;;;10501102;28;20047;-73
2023/07/13 20:56:50;;;;;;;13.52;5.15;;;;;;;;;;10501936;28;20024;-74
2023/07/13 21:01:51;;;;;;;12.88;5.65;;;;;;;;;;10501461;28;20427;-73
2023/07/13 21:06:51;;;;;;;13.77;5.00;;;;;;;;;;10500875;28;20009;-73
2023/07/13 21:11:51;;;;;;;11.73;5.03;;;;;;;;;;10501290;28;20267;-72
2023/07/13 21:16:52;;;;;;;12.32;4.93;;;;;;;;;;10500481;28;20290;-73
2023/07/13 21:21:52;;;;;;;15.17;4.93;;;;;;;;;;10500263;28;20027;-73
2023/07/13 21:26:52;;;;;;;11.20;4.88;;;;;;;;;;10500799;28;20302;-73
2023/07/13 21:31:52;;;;;;;8.02;4.82;;;;;;;;;;10499433;28;20102;-73
2023/07/13 21:36:58;;;;;;;12.55;5.20;;;;;;;;;;10500522;28;20354;-74
2023/07/13 21:42:00;;;;;;;6.90;4.72;;;;;;;;;;10500077;28;20043;-74
2023/07/13 21:47:01;;;;;;;14.93;5.50;;;;;;;;;;10500411;28;20024;-73
2023/07/13 21:52:01;;;;;;;9.13;5.10;;;;;;;;;;10499673;28;20253;-75
2023/07/13 21:57:02;;;;;;;13.23;5.20;;;;;;;;;;10504034;28;20338;-73
2023/07/13 22:02:02;;;;;;;12.07;4.70;;;;;;;;;;10518442;28;20063;-73
2023/07/13 22:07:03;;;;;;;8.15;5.28;;;;;;;;;;10508297;28;20051;-74
2023/07/13 22:12:04;;;;;;;11.48;6.30;;;;;;;;;;10508274;28;20024;-73
2023/07/13 22:17:05;;;;;;;10.27;5.05;;;;;;;;;;10506481;28;20122;-74
2023/07/13 22:22:05;;;;;;;10.30;5.28;;;;;;;;;;10507711;28;20021;-73
2023/07/13 22:27:09;;;;;;;12.93;6.07;;;;;;;;;;10506392;28;20040;-73
2023/07/13 22:32:11;;;;;;;11.80;5.28;;;;;;;;;;10507431;28;20025;-74
2023/07/13 22:37:11;;;;;;;12.65;5.25;;;;;;;;;;10507088;28;20016;-74
2023/07/13 22:42:11;;;;;;;10.70;5.40;;;;;;;;;;10507121;28;20306;-74
2023/07/13 22:47:15;;;;;;;11.02;5.32;;;;;;;;;;10506943;28;20025;-74
2023/07/13 22:52:15;;;;;;;12.88;5.55;;;;;;;;;;10505990;28;20040;-74
2023/07/13 22:57:15;;;;;;;12.13;5.85;;;;;;;;;;10506572;28;20218;-74
2023/07/13 23:02:17;;;;;;;11.73;6.00;;;;;;;;;;10506401;28;20028;-73
2023/07/13 23:07:17;;;;;;;10.60;6.10;;;;;;;;;;10504011;28;20055;-73
2023/07/13 23:12:17;;;;;;;17.45;5.75;;;;;;;;;;10505817;28;20315;-74
2023/07/13 23:17:17;;;;;;;11.57;5.80;;;;;;;;;;10504587;28;20024;-74
2023/07/13 23:22:22;;;;;;;13.30;6.53;;;;;;;;;;10505229;28;20028;-74
2023/07/13 23:27:22;;;;;;;12.48;5.25;;;;;;;;;;10504310;28;20029;-74
2023/07/13 23:32:23;;;;;;;10.18;5.40;;;;;;;;;;10503953;28;20118;-74
2023/07/13 23:37:23;;;;;;;11.27;5.70;;;;;;;;;;10504784;28;20027;-74
2023/07/13 23:42:24;;;;;;;15.73;6.07;;;;;;;;;;10503682;28;20027;-74
2023/07/13 23:47:24;;;;;;;16.65;6.57;;;;;;;;;;10504887;28;20609;-74
2023/07/13 23:52:24;;;;;;;9.27;5.95;;;;;;;;;;10503772;28;20050;-74
2023/07/13 23:57:24;;;;;;;12.00;6.00;;;;;;;;;;10503269;28;20375;-74
